Chadds Ford, PA (19317)

12:49 AM EDT en Octubre 22, 2014 (GMT -0400)
Chadds Ford Farm | Change Station
CLOSE
Current Station
Estación meteorológica personal
Location: Chadds Ford, PA
Altura: 180 ft
Estaciones meteorológicas cercanas

Alt 180 ft 39.87 °N, 75.59 °W | Updated 12 minutes ago

Nublado
Nublado
55.4 ° F
Sensación térmica 55.4 ° F
N
0.0
Viento Variable Viento desde NO
Gusts 5.0 mph

Hoy
Alta -- | Baja -- ° F
--% Posibilidad de precipitaciones
Ayer
Alta -- | Baja -- ° F
Precip. -- pul
7:20 AM 6:13 PM
Creciente menguante, 3% visible
Presión 29.87 pul
Visibilidad 10.0 Millas
Nubes Despejado
Punto de rocío 51 ° F
Humedad 85%
Precipitaciones 0.00 pul
Espesor de la nieve No disponible.
UV 0.0 de una escala de 12
Polen .50 de una escala de 12
Ozono Buena
PM2.5 Moderada
Flu Activity Sporadic
SPECI KILG 220431Z 36006KT 10SM CLR 13/11 A2987 RMK AO2 T01280106

More Conditions Fewer Conditions

Presión 29.87 pul
Visibilidad 10.0 Millas
Nubes Despejado
Punto de rocío 51 ° F
Humedad 85%
Precipitaciones 0.00 pul
Espesor de la nieve No disponible.
UV 0.0 de una escala de 12
Polen .50 de una escala de 12
Ozono Buena
PM2.5 Moderada
Flu Activity Sporadic
SPECI KILG 220431Z 36006KT 10SM CLR 13/11 A2987 RMK AO2 T01280106

More Conditions Fewer Conditions

10-Day Weather Forecast

Almanac

Astronomía

Oct. 22, 2014 Salida Puesta
Hora real 7:20 AM EDT 6:13 PM EDT
Crepúsculo civil 6:52 AM EDT 6:40 PM EDT
Crepúsculo náutico 6:21 AM EDT 7:11 PM EDT
Crepúsculo astronómico 5:49 AM EDT 7:43 PM EDT
Luna 5:59 AM EDT 5:38 PM EDT
Horas de luz 11h 47m
Horas de luz
10h 52m
Tomorrow will be 2m 27s shorter.
Creciente menguante, 3% of the Moon is Illuminated
Hoy
Creciente menguante
Oct 23
Nueva
Oct 30
Cuarto creciente
Nov 6
Luna llena
Nov 14
Cuarto menguante

Extremos de hoy

Máximos del estado Bajos del estado

Community

WunderPhotos

Upload Photos

1,763,882 ¡fotos cargadas!

Nearby

Calidad del aire

  Calidad del aire Índice AQ Contaminante
Ayer Moderada
PM2.5
Ayer Buena
OZONE
Real Moderada
PM2.5
Real Buena
OZONE
Martes Moderada
PM2.5
Miércoles Buena
PM2.5
Jueves Buena
PM2.5
Viernes Buena
PM2.5

Grosos de nieve

Estación Profundido Altura
No tenemos constancia de nieve nueva.

Actividad de terremotos

Ciudad Distance Mag. Tiempo y dato
No hay informes recientes de la actividad sísmica.
Magnitud mínima muestra es 2,5.

Temperaturas de aguas costeras

Lugar Temperatura
Ship John Shoal, NJ 63.0 ° F
Cape May, NJ 66.9 ° F
Reedy Point, DE 64.0 ° F
Delaware City, DE 64.0 ° F
Marcus Hook, PA 64.0 ° F

Estaciones meteorológicas cercanas